createdAt,value
2023-03-02T00:01:51.150Z,31.07
2023-03-02T00:04:23.024Z,31.40
2023-03-02T00:06:52.844Z,28.43
2023-03-02T00:09:22.159Z,29.97
2023-03-02T00:11:50.201Z,28.20
2023-03-02T00:14:18.529Z,28.80
2023-03-02T00:16:46.493Z,29.73
2023-03-02T00:19:14.392Z,29.10
2023-03-02T00:21:42.320Z,29.10
2023-03-02T00:24:10.512Z,28.70
2023-03-02T00:26:39.809Z,29.13
2023-03-02T00:29:07.737Z,29.03
2023-03-02T00:31:35.826Z,29.33
2023-03-02T00:34:03.790Z,26.93
2023-03-02T00:36:32.090Z,27.90
2023-03-02T00:39:00.365Z,30.17
2023-03-02T00:41:28.941Z,29.30
2023-03-02T00:43:58.609Z,30.03
2023-03-02T00:46:28.489Z,27.37
2023-03-02T00:48:56.484Z,29.37
2023-03-02T00:51:25.358Z,28.67
2023-03-02T00:53:53.316Z,30.33
2023-03-02T00:56:21.213Z,30.07
2023-03-02T00:58:49.109Z,30.00
2023-03-02T01:01:18.891Z,29.67
2023-03-02T01:03:47.306Z,30.53
2023-03-02T01:06:16.647Z,30.13
2023-03-02T01:08:45.032Z,28.97
2023-03-02T01:11:17.811Z,30.60
2023-03-02T01:13:46.008Z,28.80
2023-03-02T01:16:14.452Z,31.57
2023-03-02T01:18:43.968Z,29.30
2023-03-02T01:21:14.114Z,31.17
2023-03-02T01:23:42.220Z,29.40
2023-03-02T01:26:10.904Z,29.10
2023-03-02T01:28:38.836Z,31.60
2023-03-02T01:31:06.899Z,28.33
2023-03-02T01:33:35.012Z,29.67
2023-03-02T01:36:04.438Z,27.60
2023-03-02T01:38:32.392Z,29.07
2023-03-02T01:41:00.323Z,32.03
2023-03-02T01:43:29.288Z,30.27
2023-03-02T01:45:59.367Z,28.80
2023-03-02T01:48:32.832Z,29.60
2023-03-02T01:51:03.409Z,28.60
2023-03-02T01:53:35.128Z,29.73
2023-03-02T01:56:05.715Z,29.80
2023-03-02T01:58:37.306Z,29.97
2023-03-02T02:01:06.261Z,30.03
2023-03-02T02:03:34.406Z,29.37
2023-03-02T02:06:11.462Z,28.90
2023-03-02T02:08:41.289Z,29.40
2023-03-02T02:11:09.173Z,29.77
2023-03-02T02:13:37.330Z,28.00
2023-03-02T02:16:06.108Z,28.80
2023-03-02T02:18:34.882Z,30.00
2023-03-02T02:21:03.141Z,28.50
2023-03-02T02:23:38.468Z,30.60
2023-03-02T02:26:18.430Z,28.10
2023-03-02T02:28:52.530Z,28.60
2023-03-02T02:31:26.556Z,29.53
2023-03-02T02:33:59.219Z,28.53
2023-03-02T02:36:33.904Z,26.77
2023-03-02T02:39:05.980Z,29.30
2023-03-02T02:41:39.175Z,29.37
2023-03-02T02:44:07.540Z,27.50
2023-03-02T02:46:35.572Z,26.60
2023-03-02T02:49:04.450Z,27.23
2023-03-02T02:51:33.581Z,29.00
2023-03-02T02:54:03.394Z,28.83
2023-03-02T02:56:34.850Z,27.80
2023-03-02T02:59:07.894Z,30.67
2023-03-02T03:01:36.187Z,29.03
2023-03-02T03:04:07.194Z,28.83
2023-03-02T03:06:42.057Z,28.90
2023-03-02T03:09:11.619Z,27.73
2023-03-02T03:11:42.744Z,27.40
2023-03-02T03:14:14.095Z,29.90
2023-03-02T03:16:44.738Z,28.50
2023-03-02T03:19:18.126Z,26.70
2023-03-02T03:21:49.221Z,40.63
2023-03-02T03:24:17.259Z,25.43
2023-03-02T03:26:45.643Z,26.67
2023-03-02T03:29:17.888Z,27.03
2023-03-02T03:31:46.009Z,29.43
2023-03-02T03:34:13.992Z,28.80
2023-03-02T03:36:43.301Z,26.67
2023-03-02T03:39:13.732Z,27.73
2023-03-02T03:41:42.253Z,27.60
2023-03-02T03:44:11.033Z,27.53
2023-03-02T03:46:40.397Z,28.17
2023-03-02T03:49:08.341Z,29.13
2023-03-02T03:51:36.342Z,30.27
2023-03-02T03:54:05.360Z,28.40
2023-03-02T03:56:36.019Z,28.57
2023-03-02T03:59:07.293Z,29.90
2023-03-02T04:01:36.783Z,30.73
2023-03-02T04:04:08.224Z,28.90
2023-03-02T04:06:36.735Z,30.00
2023-03-02T04:09:05.695Z,28.60
2023-03-02T04:11:34.366Z,30.20
2023-03-02T04:14:02.323Z,30.20
2023-03-02T04:16:31.673Z,27.77
2023-03-02T04:19:00.724Z,27.63
2023-03-02T04:21:30.258Z,30.10
2023-03-02T04:23:58.184Z,31.63
2023-03-02T04:26:26.967Z,30.30
2023-03-02T04:28:55.202Z,27.73
2023-03-02T04:31:23.477Z,29.93
2023-03-02T04:33:51.936Z,44.47
2023-03-02T04:36:20.572Z,29.83
2023-03-02T04:38:49.963Z,32.60
2023-03-02T04:41:19.333Z,29.13
2023-03-02T04:43:47.315Z,29.63
2023-03-02T04:46:16.721Z,30.43
2023-03-02T04:48:44.712Z,30.90
2023-03-02T04:51:23.901Z,31.60
2023-03-02T04:53:53.539Z,31.40
2023-03-02T04:56:21.890Z,31.07
2023-03-02T04:58:49.844Z,31.53
2023-03-02T05:01:19.562Z,31.10
2023-03-02T05:03:48.181Z,30.10
2023-03-02T05:06:16.694Z,31.43
2023-03-02T05:08:44.882Z,29.53
2023-03-02T05:11:22.297Z,29.43
2023-03-02T05:13:50.910Z,30.27
2023-03-02T05:16:19.226Z,29.90
2023-03-02T05:18:47.696Z,30.47
2023-03-02T05:21:16.980Z,28.50
2023-03-02T05:23:45.159Z,29.13
2023-03-02T05:26:15.189Z,31.00
2023-03-02T05:28:43.621Z,29.57
2023-03-02T05:31:18.873Z,27.50
2023-03-02T05:33:47.103Z,28.53
2023-03-02T05:36:16.506Z,29.83
2023-03-02T05:38:45.794Z,28.90
2023-03-02T05:41:15.337Z,30.53
2023-03-02T05:43:43.362Z,30.60
2023-03-02T05:46:11.327Z,29.20
2023-03-02T05:48:39.555Z,31.03
2023-03-02T05:51:07.644Z,29.80
2023-03-02T05:53:35.710Z,30.33
2023-03-02T05:56:04.081Z,29.37
2023-03-02T05:58:33.514Z,29.27
2023-03-02T06:01:02.503Z,30.37
2023-03-02T06:03:30.454Z,29.07
2023-03-02T06:05:58.372Z,29.30
2023-03-02T06:08:26.322Z,30.30
2023-03-02T06:10:56.748Z,32.20
2023-03-02T06:13:24.892Z,34.53
2023-03-02T06:15:54.160Z,30.97
2023-03-02T06:18:22.099Z,31.03
2023-03-02T06:20:51.505Z,29.53
2023-03-02T06:23:19.397Z,30.27
2023-03-02T06:25:48.866Z,32.47
2023-03-02T06:28:19.764Z,33.10
2023-03-02T06:30:49.669Z,32.17
2023-03-02T06:33:21.250Z,31.30
2023-03-02T06:35:50.257Z,33.03
2023-03-02T06:38:18.798Z,33.50
2023-03-02T06:40:47.266Z,34.87
2023-03-02T06:43:15.265Z,33.87
2023-03-02T06:45:43.328Z,31.70
2023-03-02T06:48:11.325Z,30.73
2023-03-02T06:50:40.671Z,32.50
2023-03-02T06:53:08.706Z,32.07
2023-03-02T06:55:36.624Z,31.70
2023-03-02T06:58:04.692Z,30.43
2023-03-02T07:00:32.646Z,31.43
2023-03-02T07:03:00.607Z,28.27
2023-03-02T07:05:32.062Z,29.30
2023-03-02T07:08:01.496Z,34.10
2023-03-02T07:10:29.514Z,27.13
2023-03-02T07:12:58.520Z,27.37
2023-03-02T07:15:26.820Z,28.67
2023-03-02T07:17:54.712Z,33.90
2023-03-02T07:20:22.789Z,28.50
2023-03-02T07:22:50.844Z,27.53
2023-03-02T07:25:20.332Z,27.03
2023-03-02T07:27:48.476Z,28.80
2023-03-02T07:30:20.991Z,29.00
2023-03-02T07:32:49.138Z,29.20
2023-03-02T07:35:18.078Z,26.97
2023-03-02T07:37:46.195Z,28.43
2023-03-02T07:40:15.174Z,27.90
2023-03-02T07:42:44.463Z,30.50
2023-03-02T07:45:12.932Z,29.93
2023-03-02T07:47:41.024Z,33.33
2023-03-02T07:50:10.371Z,30.87
2023-03-02T07:52:38.304Z,26.43
2023-03-02T07:55:06.908Z,25.53
2023-03-02T07:57:34.860Z,23.80
2023-03-02T08:00:04.517Z,23.37
2023-03-02T08:02:33.611Z,22.80
2023-03-02T08:05:01.637Z,25.83
2023-03-02T08:07:29.732Z,26.53
2023-03-02T08:09:57.975Z,30.00
2023-03-02T08:12:26.033Z,26.70
2023-03-02T08:14:53.973Z,23.37
2023-03-02T08:17:23.593Z,26.23
2023-03-02T08:19:51.530Z,23.00
2023-03-02T08:22:19.426Z,24.20
2023-03-02T08:24:47.476Z,20.00
2023-03-02T08:27:16.542Z,20.73
2023-03-02T08:29:44.494Z,20.47
2023-03-02T08:32:12.529Z,18.60
2023-03-02T08:34:41.967Z,21.53
2023-03-02T08:37:09.956Z,20.60
2023-03-02T08:39:38.029Z,21.03
2023-03-02T08:42:05.992Z,22.10
2023-03-02T08:44:34.010Z,22.80
2023-03-02T08:47:01.992Z,20.93
2023-03-02T08:49:29.951Z,21.63
2023-03-02T08:52:00.659Z,23.70
2023-03-02T08:54:28.754Z,21.70
2023-03-02T08:56:56.758Z,21.03
2023-03-02T08:59:24.691Z,22.17
2023-03-02T09:01:52.698Z,23.33
2023-03-02T09:04:20.635Z,22.50
2023-03-02T09:06:48.760Z,22.00
2023-03-02T09:09:18.152Z,20.80
2023-03-02T09:11:46.561Z,21.30
2023-03-02T09:14:14.642Z,20.57
2023-03-02T09:16:42.763Z,19.10
2023-03-02T09:19:11.363Z,21.50
2023-03-02T09:21:39.349Z,21.87
2023-03-02T09:24:07.697Z,22.70
2023-03-02T09:26:38.195Z,20.70
2023-03-02T09:29:07.062Z,32.73
2023-03-02T09:31:35.733Z,23.93
2023-03-02T09:34:04.735Z,36.27
2023-03-02T09:36:32.763Z,27.60
2023-03-02T09:39:00.733Z,21.50
2023-03-02T09:42:18.618Z,30.87
2023-03-02T09:45:10.599Z,22.03
2023-03-02T09:47:49.036Z,21.60
2023-03-02T09:50:31.252Z,22.40
2023-03-02T09:53:31.972Z,21.30
2023-03-02T09:56:01.805Z,20.60
2023-03-02T09:58:36.440Z,28.07
2023-03-02T10:01:10.238Z,24.20
2023-03-02T10:03:46.269Z,24.57
2023-03-02T10:06:14.541Z,23.37
2023-03-02T10:08:43.364Z,25.03
2023-03-02T10:11:17.655Z,21.70
2023-03-02T10:13:50.578Z,22.50
2023-03-02T10:16:29.577Z,21.50
2023-03-02T10:19:07.580Z,18.53
2023-03-02T10:21:40.333Z,21.73
2023-03-02T10:24:21.972Z,20.67
2023-03-02T10:26:54.104Z,21.53
2023-03-02T10:29:46.413Z,20.50
2023-03-02T10:32:21.126Z,21.77
2023-03-02T10:34:50.084Z,20.83
2023-03-02T10:37:21.649Z,22.63
2023-03-02T10:39:50.098Z,20.03
2023-03-02T10:42:22.174Z,21.10
2023-03-02T10:44:53.691Z,21.10
2023-03-02T10:47:25.237Z,23.37
2023-03-02T10:49:53.836Z,28.70
2023-03-02T10:52:24.322Z,39.60
2023-03-02T10:55:03.141Z,21.60
2023-03-02T10:57:36.271Z,21.27
2023-03-02T11:00:15.486Z,22.83
2023-03-02T11:02:51.240Z,19.93
2023-03-02T11:05:37.828Z,20.00
2023-03-02T11:08:09.500Z,21.83
2023-03-02T11:10:39.203Z,25.40
2023-03-02T11:13:18.392Z,19.17
2023-03-02T11:15:50.393Z,20.20
2023-03-02T11:18:28.942Z,21.67
2023-03-02T11:21:02.326Z,21.40
2023-03-02T11:23:41.388Z,19.83
2023-03-02T11:26:18.746Z,21.20
2023-03-02T11:28:52.935Z,20.30
2023-03-02T11:31:31.253Z,19.60
2023-03-02T11:34:17.670Z,22.27
2023-03-02T11:36:57.286Z,19.70
2023-03-02T11:39:32.237Z,19.50
2023-03-02T11:42:00.241Z,23.87
2023-03-02T11:44:29.861Z,18.10
2023-03-02T11:47:02.452Z,19.33
2023-03-02T11:49:38.946Z,18.70
2023-03-02T11:52:17.044Z,20.17
2023-03-02T11:54:48.112Z,19.70
2023-03-02T11:57:22.504Z,20.47
2023-03-02T11:59:52.490Z,20.27
2023-03-02T12:02:23.096Z,19.67
2023-03-02T12:05:01.722Z,21.30
2023-03-02T12:07:29.720Z,18.90
2023-03-02T12:10:01.430Z,20.70
2023-03-02T12:12:43.006Z,18.13
2023-03-02T12:15:30.819Z,17.53
2023-03-02T12:18:00.279Z,18.70
2023-03-02T12:20:29.919Z,18.17
2023-03-02T12:23:09.531Z,16.50
2023-03-02T12:25:41.458Z,18.20
2023-03-02T12:28:27.390Z,17.30
2023-03-02T12:31:03.877Z,18.43
2023-03-02T12:33:33.542Z,16.50
2023-03-02T12:36:15.069Z,15.40
2023-03-02T12:38:50.594Z,17.50
2023-03-02T12:41:45.155Z,16.83
2023-03-02T12:44:27.745Z,23.60
2023-03-02T12:46:56.286Z,16.97
2023-03-02T12:49:49.573Z,18.73
2023-03-02T12:52:28.996Z,19.20
2023-03-02T12:55:06.684Z,17.73
2023-03-02T12:57:37.954Z,16.43
2023-03-02T13:00:15.985Z,16.67
2023-03-02T13:02:48.181Z,16.90
2023-03-02T13:05:21.971Z,18.60
2023-03-02T13:07:57.877Z,18.83
2023-03-02T13:10:30.731Z,17.67
2023-03-02T13:13:01.826Z,17.47
2023-03-02T13:15:30.084Z,20.03
2023-03-02T13:17:59.793Z,17.80
2023-03-02T13:20:30.941Z,17.07
2023-03-02T13:22:59.171Z,17.33
2023-03-02T13:25:29.570Z,17.27
2023-03-02T13:28:00.749Z,17.40
2023-03-02T13:30:31.253Z,17.90
2023-03-02T13:33:03.200Z,19.00
2023-03-02T13:35:35.601Z,18.90
2023-03-02T13:38:05.965Z,18.73
2023-03-02T13:40:40.707Z,18.30
2023-03-02T13:43:22.883Z,19.17
2023-03-02T13:45:55.578Z,20.10
2023-03-02T13:48:23.882Z,17.97
2023-03-02T13:50:57.192Z,18.20
2023-03-02T13:53:26.289Z,17.87
2023-03-02T13:55:55.210Z,19.50
2023-03-02T13:58:25.118Z,18.20
2023-03-02T14:00:53.486Z,18.43
2023-03-02T14:03:27.418Z,20.60
2023-03-02T14:05:58.035Z,19.47
2023-03-02T14:08:26.573Z,18.00
2023-03-02T14:10:58.033Z,18.60
2023-03-02T14:13:36.737Z,16.53
2023-03-02T14:16:05.096Z,17.80
2023-03-02T14:18:38.569Z,17.27
2023-03-02T14:21:11.878Z,16.47
2023-03-02T14:23:41.071Z,17.30
2023-03-02T14:26:33.616Z,16.00
2023-03-02T14:29:06.263Z,14.97
2023-03-02T14:31:35.041Z,14.70
2023-03-02T14:34:03.316Z,12.80
2023-03-02T14:36:34.932Z,13.83
2023-03-02T14:39:06.000Z,17.50
2023-03-02T14:41:43.976Z,21.87
2023-03-02T14:44:19.400Z,15.37
2023-03-02T14:46:47.522Z,13.17
2023-03-02T14:49:15.543Z,12.70
2023-03-02T14:51:49.117Z,15.50
2023-03-02T14:54:20.906Z,16.73
2023-03-02T14:56:50.457Z,19.27
2023-03-02T14:59:18.760Z,30.77
2023-03-02T15:01:47.405Z,14.93
2023-03-02T15:04:15.557Z,17.03
2023-03-02T15:06:44.976Z,14.47
2023-03-02T15:09:13.229Z,16.57
2023-03-02T15:11:41.131Z,16.43
2023-03-02T15:14:09.086Z,17.77
2023-03-02T15:16:37.027Z,16.20
2023-03-02T15:19:05.181Z,16.03
2023-03-02T15:21:33.424Z,12.70
2023-03-02T15:24:03.208Z,15.70
2023-03-02T15:26:31.182Z,16.73
2023-03-02T15:28:59.104Z,14.17
2023-03-02T15:31:28.265Z,16.50
2023-03-02T15:33:56.411Z,16.83
2023-03-02T15:36:25.628Z,15.27
2023-03-02T15:38:54.994Z,15.70
2023-03-02T15:41:24.336Z,17.90
2023-03-02T15:43:53.797Z,18.20
2023-03-02T15:46:22.327Z,15.80
2023-03-02T15:48:51.916Z,16.27
2023-03-02T15:51:20.399Z,17.00
2023-03-02T15:53:48.813Z,14.97
2023-03-02T15:56:17.622Z,14.80
2023-03-02T15:58:50.692Z,15.90
2023-03-02T16:01:18.641Z,52.93
2023-03-02T16:03:46.710Z,36.67
2023-03-02T16:06:15.628Z,17.60
2023-03-02T16:08:43.601Z,16.07
2023-03-02T16:11:18.654Z,15.00
2023-03-02T16:13:46.849Z,18.37
2023-03-02T16:16:17.517Z,15.57
2023-03-02T16:18:45.508Z,18.33
2023-03-02T16:21:14.055Z,17.80
2023-03-02T16:23:42.102Z,19.87
2023-03-02T16:26:11.392Z,17.30
2023-03-02T16:28:39.497Z,17.43
2023-03-02T16:31:09.367Z,17.50
2023-03-02T16:33:39.430Z,16.57
2023-03-02T16:36:08.796Z,17.40
2023-03-02T16:38:37.779Z,16.20
2023-03-02T16:41:06.178Z,13.00
2023-03-02T16:43:34.133Z,13.90
2023-03-02T16:46:02.058Z,13.77
2023-03-02T16:48:30.016Z,14.87
2023-03-02T16:50:59.511Z,16.93
2023-03-02T16:53:27.470Z,17.93
2023-03-02T16:55:55.394Z,16.07
2023-03-02T16:58:23.306Z,16.17
2023-03-02T17:00:51.370Z,17.63
2023-03-02T17:03:19.669Z,15.30
2023-03-02T17:05:47.593Z,15.03
2023-03-02T17:08:17.950Z,15.33
2023-03-02T17:10:45.945Z,17.30
2023-03-02T17:13:16.451Z,16.50
2023-03-02T17:15:44.446Z,31.83
2023-03-02T17:18:12.603Z,38.03
2023-03-02T17:20:40.700Z,51.37
2023-03-02T17:23:08.625Z,31.10
2023-03-02T17:25:37.883Z,31.10
2023-03-02T17:28:06.496Z,28.00
2023-03-02T17:30:34.909Z,29.90
2023-03-02T17:33:02.853Z,24.17
2023-03-02T17:35:30.857Z,26.87
2023-03-02T17:37:58.824Z,26.63
2023-03-02T17:40:26.755Z,18.93
2023-03-02T17:42:57.758Z,25.77
2023-03-02T17:45:28.461Z,25.83
2023-03-02T17:47:58.294Z,23.30
2023-03-02T17:50:27.663Z,24.03
2023-03-02T17:52:55.609Z,23.87
2023-03-02T17:55:23.814Z,22.87
2023-03-02T17:57:51.716Z,22.63
2023-03-02T18:00:23.267Z,59.00
2023-03-02T18:02:51.791Z,83.20
2023-03-02T18:05:21.459Z,20.90
2023-03-02T18:07:51.801Z,18.37
2023-03-02T18:10:19.926Z,17.40
2023-03-02T18:12:51.665Z,18.30
2023-03-02T18:15:22.594Z,18.87
2023-03-02T18:17:50.914Z,19.70
2023-03-02T18:20:19.169Z,17.60
2023-03-02T18:22:47.247Z,20.43
2023-03-02T18:25:15.289Z,24.40
2023-03-02T18:27:43.266Z,21.83
2023-03-02T18:30:12.789Z,20.90
2023-03-02T18:32:42.259Z,20.90
2023-03-02T18:35:11.041Z,22.30
2023-03-02T18:37:39.076Z,25.43
2023-03-02T18:40:09.176Z,22.87
2023-03-02T18:42:37.074Z,24.80
2023-03-02T18:45:06.160Z,23.40
2023-03-02T18:47:36.435Z,21.67
2023-03-02T18:50:06.486Z,39.87
2023-03-02T18:52:34.553Z,32.93
2023-03-02T18:55:04.386Z,26.07
2023-03-02T18:57:33.838Z,15.73
2023-03-02T19:00:01.761Z,17.33
2023-03-02T19:02:29.750Z,16.30
2023-03-02T19:04:57.816Z,18.17
2023-03-02T19:07:27.105Z,15.53
2023-03-02T19:09:55.152Z,18.93
2023-03-02T19:12:23.107Z,19.13
2023-03-02T19:14:51.066Z,20.63
2023-03-02T19:17:19.002Z,21.60
2023-03-02T19:19:46.945Z,22.47
2023-03-02T19:22:16.508Z,23.67
2023-03-02T19:24:46.758Z,28.00
2023-03-02T19:27:15.325Z,27.23
2023-03-02T19:29:43.287Z,24.77
2023-03-02T19:32:14.599Z,24.50
2023-03-02T19:34:44.363Z,27.07
2023-03-02T19:37:12.370Z,25.83
2023-03-02T19:39:40.580Z,26.50
2023-03-02T19:42:09.924Z,27.00
2023-03-02T19:44:38.142Z,31.60
2023-03-02T19:47:06.263Z,25.90
2023-03-02T19:49:34.276Z,25.00
2023-03-02T19:52:02.469Z,25.77
2023-03-02T19:54:30.547Z,24.47
2023-03-02T19:56:59.050Z,25.73
2023-03-02T19:59:29.293Z,24.03
2023-03-02T20:01:59.353Z,24.10
2023-03-02T20:04:27.870Z,23.90
2023-03-02T20:06:55.860Z,27.90
2023-03-02T20:09:24.170Z,26.13
2023-03-02T20:11:52.324Z,26.70
2023-03-02T20:14:32.745Z,24.40
2023-03-02T20:17:02.723Z,25.23
2023-03-02T20:19:30.753Z,26.37
2023-03-02T20:21:58.811Z,24.90
2023-03-02T20:24:26.854Z,23.47
2023-03-02T20:26:54.960Z,25.30
2023-03-02T20:29:22.984Z,24.33
2023-03-02T20:31:50.966Z,25.60
2023-03-02T20:34:20.812Z,27.63
2023-03-02T20:36:49.826Z,25.00
2023-03-02T20:39:21.558Z,24.80
2023-03-02T20:41:49.815Z,22.67
2023-03-02T20:44:18.638Z,22.97
2023-03-02T20:46:49.866Z,23.50
2023-03-02T20:49:18.209Z,23.40
2023-03-02T20:51:52.803Z,23.70
2023-03-02T20:54:22.966Z,21.77
2023-03-02T20:56:51.249Z,23.37
2023-03-02T20:59:19.652Z,22.83
2023-03-02T21:01:47.831Z,24.00
2023-03-02T21:04:15.776Z,25.93
2023-03-02T21:06:44.597Z,27.00
2023-03-02T21:09:14.486Z,24.80
2023-03-02T21:11:42.423Z,27.10
2023-03-02T21:14:10.495Z,25.90
2023-03-02T21:16:40.096Z,25.10
2023-03-02T21:19:10.386Z,22.93
2023-03-02T21:21:41.768Z,26.20
2023-03-02T21:24:12.241Z,23.33
2023-03-02T21:26:44.193Z,22.20
2023-03-02T21:29:12.979Z,23.20
2023-03-02T21:31:42.188Z,25.20
2023-03-02T21:34:10.512Z,23.30
2023-03-02T21:36:38.600Z,25.77
2023-03-02T21:39:07.924Z,26.37
2023-03-02T21:41:36.668Z,28.70
2023-03-02T21:44:06.720Z,24.93
2023-03-02T21:46:36.124Z,26.77
2023-03-02T21:49:04.158Z,26.40
2023-03-02T21:51:32.263Z,25.53
2023-03-02T21:54:00.434Z,26.43
2023-03-02T21:56:28.628Z,27.07
2023-03-02T21:58:57.673Z,26.43
2023-03-02T22:01:27.386Z,26.77
2023-03-02T22:03:55.758Z,27.63
2023-03-02T22:06:26.458Z,27.23
2023-03-02T22:08:55.643Z,30.80
2023-03-02T22:11:25.291Z,31.77
2023-03-02T22:13:55.213Z,30.70
2023-03-02T22:16:25.201Z,31.70
2023-03-02T22:18:57.976Z,32.03
2023-03-02T22:21:30.666Z,30.33
2023-03-02T22:24:12.430Z,31.33
2023-03-02T22:26:42.812Z,31.97
2023-03-02T22:29:15.418Z,31.17
2023-03-02T22:31:47.375Z,30.43
2023-03-02T22:34:20.601Z,28.03
2023-03-02T22:36:48.802Z,30.10
2023-03-02T22:39:28.343Z,28.57
2023-03-02T22:42:01.435Z,28.53
2023-03-02T22:44:29.639Z,30.40
2023-03-02T22:46:58.396Z,30.50
2023-03-02T22:49:29.384Z,31.37
2023-03-02T22:52:01.153Z,32.30
2023-03-02T22:54:34.984Z,87.30
2023-03-02T22:57:02.935Z,64.40
2023-03-02T22:59:37.928Z,41.20
2023-03-02T23:02:14.415Z,36.37
2023-03-02T23:04:43.783Z,33.63
2023-03-02T23:07:18.234Z,30.60
2023-03-02T23:09:46.848Z,35.20
2023-03-02T23:12:19.855Z,33.23
2023-03-02T23:14:50.038Z,33.03
2023-03-02T23:17:22.438Z,34.00
2023-03-02T23:19:52.472Z,30.73
2023-03-02T23:22:20.622Z,31.90
2023-03-02T23:24:48.528Z,32.83
2023-03-02T23:27:16.426Z,32.53
2023-03-02T23:29:44.388Z,32.27
2023-03-02T23:32:12.362Z,33.60
2023-03-02T23:34:40.418Z,29.80
2023-03-02T23:37:09.679Z,32.80
2023-03-02T23:39:37.687Z,33.43
2023-03-02T23:42:06.125Z,30.27
2023-03-02T23:44:34.045Z,33.30
2023-03-02T23:47:02.251Z,32.93
2023-03-02T23:49:30.176Z,32.33
2023-03-02T23:51:58.589Z,33.20
2023-03-02T23:54:27.930Z,32.23
2023-03-02T23:56:55.880Z,32.93
2023-03-02T23:59:24.006Z,32.40
